sensor_id;sensor_type;location;lat;lon;timestamp;temperature;humidity
66568;DHT22;53422;49.296;6.900;2023-06-14T00:00:38;20.10;40.00
66568;DHT22;53422;49.296;6.900;2023-06-14T00:03:07;20.10;40.00
66568;DHT22;53422;49.296;6.900;2023-06-14T00:05:37;20.10;39.90
66568;DHT22;53422;49.296;6.900;2023-06-14T00:08:09;20.10;39.90
66568;DHT22;53422;49.296;6.900;2023-06-14T00:10:35;20.10;40.10
66568;DHT22;53422;49.296;6.900;2023-06-14T00:13:04;20.10;40.10
66568;DHT22;53422;49.296;6.900;2023-06-14T00:15:31;20.00;39.90
66568;DHT22;53422;49.296;6.900;2023-06-14T00:17:57;20.00;40.10
66568;DHT22;53422;49.296;6.900;2023-06-14T00:20:26;19.90;40.10
66568;DHT22;53422;49.296;6.900;2023-06-14T00:22:52;19.90;40.30
66568;DHT22;53422;49.296;6.900;2023-06-14T00:25:18;19.90;40.30
66568;DHT22;53422;49.296;6.900;2023-06-14T00:27:46;19.90;40.40
66568;DHT22;53422;49.296;6.900;2023-06-14T00:30:12;19.80;40.60
66568;DHT22;53422;49.296;6.900;2023-06-14T00:32:41;19.80;40.80
66568;DHT22;53422;49.296;6.900;2023-06-14T00:35:08;19.70;40.60
66568;DHT22;53422;49.296;6.900;2023-06-14T00:37:35;19.70;40.80
66568;DHT22;53422;49.296;6.900;2023-06-14T00:40:00;19.80;40.80
66568;DHT22;53422;49.296;6.900;2023-06-14T00:42:27;19.80;40.90
66568;DHT22;53422;49.296;6.900;2023-06-14T00:44:53;19.70;40.80
66568;DHT22;53422;49.296;6.900;2023-06-14T00:47:19;19.70;40.90
66568;DHT22;53422;49.296;6.900;2023-06-14T00:49:51;19.70;40.90
66568;DHT22;53422;49.296;6.900;2023-06-14T00:52:18;19.70;41.00
66568;DHT22;53422;49.296;6.900;2023-06-14T00:54:44;19.70;41.10
66568;DHT22;53422;49.296;6.900;2023-06-14T00:57:11;19.60;41.20
66568;DHT22;53422;49.296;6.900;2023-06-14T00:59:48;19.60;41.10
66568;DHT22;53422;49.296;6.900;2023-06-14T01:02:18;19.60;41.10
66568;DHT22;53422;49.296;6.900;2023-06-14T01:04:47;19.60;41.20
66568;DHT22;53422;49.296;6.900;2023-06-14T01:07:18;19.60;41.20
66568;DHT22;53422;49.296;6.900;2023-06-14T01:12:31;19.50;41.30
66568;DHT22;53422;49.296;6.900;2023-06-14T01:15:01;19.40;41.50
66568;DHT22;53422;49.296;6.900;2023-06-14T01:17:28;19.30;41.60
66568;DHT22;53422;49.296;6.900;2023-06-14T01:20:03;19.40;41.50
66568;DHT22;53422;49.296;6.900;2023-06-14T01:22:37;19.50;41.60
66568;DHT22;53422;49.296;6.900;2023-06-14T01:25:03;19.50;41.40
66568;DHT22;53422;49.296;6.900;2023-06-14T01:27:30;19.50;41.30
66568;DHT22;53422;49.296;6.900;2023-06-14T01:29:58;19.40;41.50
66568;DHT22;53422;49.296;6.900;2023-06-14T01:32:26;19.30;41.70
66568;DHT22;53422;49.296;6.900;2023-06-14T01:34:52;19.30;41.90
66568;DHT22;53422;49.296;6.900;2023-06-14T01:37:19;19.40;41.70
66568;DHT22;53422;49.296;6.900;2023-06-14T01:39:45;19.40;41.50
66568;DHT22;53422;49.296;6.900;2023-06-14T01:42:13;19.30;41.80
66568;DHT22;53422;49.296;6.900;2023-06-14T01:44:40;19.40;41.70
66568;DHT22;53422;49.296;6.900;2023-06-14T01:47:07;19.40;41.60
66568;DHT22;53422;49.296;6.900;2023-06-14T01:49:34;19.30;41.70
66568;DHT22;53422;49.296;6.900;2023-06-14T01:52:00;19.30;41.90
66568;DHT22;53422;49.296;6.900;2023-06-14T01:54:26;19.30;41.90
66568;DHT22;53422;49.296;6.900;2023-06-14T01:56:52;19.30;42.00
66568;DHT22;53422;49.296;6.900;2023-06-14T01:59:18;19.20;42.00
66568;DHT22;53422;49.296;6.900;2023-06-14T02:01:44;19.10;42.10
66568;DHT22;53422;49.296;6.900;2023-06-14T02:04:11;19.10;42.30
66568;DHT22;53422;49.296;6.900;2023-06-14T02:06:37;19.10;42.30
66568;DHT22;53422;49.296;6.900;2023-06-14T02:09:03;18.90;42.30
66568;DHT22;53422;49.296;6.900;2023-06-14T02:11:29;18.90;42.50
66568;DHT22;53422;49.296;6.900;2023-06-14T02:13:55;19.00;42.50
66568;DHT22;53422;49.296;6.900;2023-06-14T02:16:25;18.90;42.50
66568;DHT22;53422;49.296;6.900;2023-06-14T02:18:56;18.90;42.40
66568;DHT22;53422;49.296;6.900;2023-06-14T02:21:22;18.80;42.70
66568;DHT22;53422;49.296;6.900;2023-06-14T02:23:47;18.80;42.80
66568;DHT22;53422;49.296;6.900;2023-06-14T02:26:13;18.70;43.00
66568;DHT22;53422;49.296;6.900;2023-06-14T02:28:38;18.50;43.40
66568;DHT22;53422;49.296;6.900;2023-06-14T02:31:04;18.60;43.20
66568;DHT22;53422;49.296;6.900;2023-06-14T02:33:30;18.60;43.10
66568;DHT22;53422;49.296;6.900;2023-06-14T02:35:55;18.60;43.20
66568;DHT22;53422;49.296;6.900;2023-06-14T02:38:21;18.70;43.10
66568;DHT22;53422;49.296;6.900;2023-06-14T02:40:47;18.70;43.00
66568;DHT22;53422;49.296;6.900;2023-06-14T02:43:12;18.60;43.20
66568;DHT22;53422;49.296;6.900;2023-06-14T02:45:38;18.60;43.30
66568;DHT22;53422;49.296;6.900;2023-06-14T02:48:04;18.60;43.20
66568;DHT22;53422;49.296;6.900;2023-06-14T02:50:29;18.60;43.40
66568;DHT22;53422;49.296;6.900;2023-06-14T02:52:55;18.60;43.30
66568;DHT22;53422;49.296;6.900;2023-06-14T02:55:22;18.50;43.40
66568;DHT22;53422;49.296;6.900;2023-06-14T02:57:48;18.40;43.30
66568;DHT22;53422;49.296;6.900;2023-06-14T03:00:13;18.50;43.30
66568;DHT22;53422;49.296;6.900;2023-06-14T03:02:39;18.50;43.40
66568;DHT22;53422;49.296;6.900;2023-06-14T03:05:05;18.50;43.30
66568;DHT22;53422;49.296;6.900;2023-06-14T03:07:32;18.50;43.50
66568;DHT22;53422;49.296;6.900;2023-06-14T03:09:58;18.50;43.40
66568;DHT22;53422;49.296;6.900;2023-06-14T03:12:23;18.50;43.30
66568;DHT22;53422;49.296;6.900;2023-06-14T03:14:49;18.50;43.50
66568;DHT22;53422;49.296;6.900;2023-06-14T03:17:16;18.40;43.50
66568;DHT22;53422;49.296;6.900;2023-06-14T03:19:43;18.50;43.40
66568;DHT22;53422;49.296;6.900;2023-06-14T03:22:08;18.60;43.30
66568;DHT22;53422;49.296;6.900;2023-06-14T03:24:34;18.60;43.30
66568;DHT22;53422;49.296;6.900;2023-06-14T03:27:02;18.60;43.10
66568;DHT22;53422;49.296;6.900;2023-06-14T03:29:28;18.60;43.30
66568;DHT22;53422;49.296;6.900;2023-06-14T03:32:03;18.60;43.40
66568;DHT22;53422;49.296;6.900;2023-06-14T03:34:31;18.60;43.20
66568;DHT22;53422;49.296;6.900;2023-06-14T03:36:57;18.60;43.30
66568;DHT22;53422;49.296;6.900;2023-06-14T03:39:22;18.60;43.40
66568;DHT22;53422;49.296;6.900;2023-06-14T03:41:48;18.50;43.30
66568;DHT22;53422;49.296;6.900;2023-06-14T03:44:16;18.50;43.40
66568;DHT22;53422;49.296;6.900;2023-06-14T03:46:46;18.60;43.70
66568;DHT22;53422;49.296;6.900;2023-06-14T03:49:12;18.60;44.50
66568;DHT22;53422;49.296;6.900;2023-06-14T03:51:38;18.60;43.60
66568;DHT22;53422;49.296;6.900;2023-06-14T03:54:05;18.50;43.40
66568;DHT22;53422;49.296;6.900;2023-06-14T03:56:31;18.50;43.60
66568;DHT22;53422;49.296;6.900;2023-06-14T03:59:00;18.50;43.80
66568;DHT22;53422;49.296;6.900;2023-06-14T04:01:25;18.50;43.70
66568;DHT22;53422;49.296;6.900;2023-06-14T04:03:56;18.40;44.00
66568;DHT22;53422;49.296;6.900;2023-06-14T04:06:22;18.40;44.10
66568;DHT22;53422;49.296;6.900;2023-06-14T04:08:51;18.40;44.30
66568;DHT22;53422;49.296;6.900;2023-06-14T04:11:17;18.50;44.30
66568;DHT22;53422;49.296;6.900;2023-06-14T04:13:43;18.60;44.40
66568;DHT22;53422;49.296;6.900;2023-06-14T04:16:09;18.50;44.10
66568;DHT22;53422;49.296;6.900;2023-06-14T04:18:35;18.60;44.80
66568;DHT22;53422;49.296;6.900;2023-06-14T04:21:00;18.60;44.20
66568;DHT22;53422;49.296;6.900;2023-06-14T04:23:26;18.60;44.80
66568;DHT22;53422;49.296;6.900;2023-06-14T04:25:53;18.70;44.70
66568;DHT22;53422;49.296;6.900;2023-06-14T04:28:19;18.70;44.80
66568;DHT22;53422;49.296;6.900;2023-06-14T04:30:45;18.80;44.90
66568;DHT22;53422;49.296;6.900;2023-06-14T04:33:12;18.90;44.40
66568;DHT22;53422;49.296;6.900;2023-06-14T04:35:39;18.90;44.90
66568;DHT22;53422;49.296;6.900;2023-06-14T04:38:06;18.90;44.80
66568;DHT22;53422;49.296;6.900;2023-06-14T04:40:35;19.00;45.20
66568;DHT22;53422;49.296;6.900;2023-06-14T04:43:01;19.00;44.90
66568;DHT22;53422;49.296;6.900;2023-06-14T04:45:32;19.20;45.30
66568;DHT22;53422;49.296;6.900;2023-06-14T04:47:59;19.20;45.10
66568;DHT22;53422;49.296;6.900;2023-06-14T04:50:25;19.30;44.90
66568;DHT22;53422;49.296;6.900;2023-06-14T04:52:52;19.40;45.60
66568;DHT22;53422;49.296;6.900;2023-06-14T04:55:18;19.40;44.80
66568;DHT22;53422;49.296;6.900;2023-06-14T04:57:45;19.50;45.10
66568;DHT22;53422;49.296;6.900;2023-06-14T05:00:11;19.50;44.70
66568;DHT22;53422;49.296;6.900;2023-06-14T05:02:37;19.60;45.00
66568;DHT22;53422;49.296;6.900;2023-06-14T05:05:03;19.60;44.50
66568;DHT22;53422;49.296;6.900;2023-06-14T05:07:34;19.60;44.50
66568;DHT22;53422;49.296;6.900;2023-06-14T05:10:00;19.60;44.90
66568;DHT22;53422;49.296;6.900;2023-06-14T05:12:25;19.70;44.40
66568;DHT22;53422;49.296;6.900;2023-06-14T05:14:51;19.80;44.70
66568;DHT22;53422;49.296;6.900;2023-06-14T05:17:17;19.80;44.40
66568;DHT22;53422;49.296;6.900;2023-06-14T05:19:43;19.90;44.30
66568;DHT22;53422;49.296;6.900;2023-06-14T05:22:08;19.90;43.90
66568;DHT22;53422;49.296;6.900;2023-06-14T05:24:34;19.90;44.00
66568;DHT22;53422;49.296;6.900;2023-06-14T05:27:00;19.80;43.50
66568;DHT22;53422;49.296;6.900;2023-06-14T05:29:26;19.80;44.30
66568;DHT22;53422;49.296;6.900;2023-06-14T05:31:53;19.90;43.30
66568;DHT22;53422;49.296;6.900;2023-06-14T05:34:18;20.10;44.80
66568;DHT22;53422;49.296;6.900;2023-06-14T05:36:44;20.20;43.50
66568;DHT22;53422;49.296;6.900;2023-06-14T05:39:10;20.10;43.70
66568;DHT22;53422;49.296;6.900;2023-06-14T05:41:35;20.30;43.20
66568;DHT22;53422;49.296;6.900;2023-06-14T05:44:01;20.30;43.60
66568;DHT22;53422;49.296;6.900;2023-06-14T05:46:29;20.50;44.00
66568;DHT22;53422;49.296;6.900;2023-06-14T05:48:58;20.70;43.60
66568;DHT22;53422;49.296;6.900;2023-06-14T05:51:24;20.70;43.30
66568;DHT22;53422;49.296;6.900;2023-06-14T05:53:52;20.70;43.50
66568;DHT22;53422;49.296;6.900;2023-06-14T05:56:18;20.90;43.30
66568;DHT22;53422;49.296;6.900;2023-06-14T05:58:45;20.80;42.50
66568;DHT22;53422;49.296;6.900;2023-06-14T06:01:10;20.90;43.10
66568;DHT22;53422;49.296;6.900;2023-06-14T06:03:36;21.10;43.50
66568;DHT22;53422;49.296;6.900;2023-06-14T06:06:02;21.00;43.00
66568;DHT22;53422;49.296;6.900;2023-06-14T06:08:28;21.10;42.90
66568;DHT22;53422;49.296;6.900;2023-06-14T06:10:54;21.20;42.60
66568;DHT22;53422;49.296;6.900;2023-06-14T06:13:20;21.20;42.70
66568;DHT22;53422;49.296;6.900;2023-06-14T06:15:45;21.20;41.90
66568;DHT22;53422;49.296;6.900;2023-06-14T06:18:11;21.20;42.30
66568;DHT22;53422;49.296;6.900;2023-06-14T06:20:37;21.10;41.90
66568;DHT22;53422;49.296;6.900;2023-06-14T06:23:03;21.10;43.20
66568;DHT22;53422;49.296;6.900;2023-06-14T06:25:29;21.10;42.30
66568;DHT22;53422;49.296;6.900;2023-06-14T06:27:57;21.20;42.10
66568;DHT22;53422;49.296;6.900;2023-06-14T06:30:24;21.40;41.40
66568;DHT22;53422;49.296;6.900;2023-06-14T06:32:50;21.30;41.80
66568;DHT22;53422;49.296;6.900;2023-06-14T06:35:16;21.40;42.10
66568;DHT22;53422;49.296;6.900;2023-06-14T06:37:42;21.30;41.30
66568;DHT22;53422;49.296;6.900;2023-06-14T06:40:08;21.30;41.70
66568;DHT22;53422;49.296;6.900;2023-06-14T06:42:34;21.50;41.70
66568;DHT22;53422;49.296;6.900;2023-06-14T06:45:00;21.30;41.90
66568;DHT22;53422;49.296;6.900;2023-06-14T06:47:26;21.60;41.10
66568;DHT22;53422;49.296;6.900;2023-06-14T06:49:52;21.70;41.20
66568;DHT22;53422;49.296;6.900;2023-06-14T06:52:18;21.80;41.10
66568;DHT22;53422;49.296;6.900;2023-06-14T06:54:44;21.80;41.10
66568;DHT22;53422;49.296;6.900;2023-06-14T06:57:09;21.60;41.60
66568;DHT22;53422;49.296;6.900;2023-06-14T06:59:36;21.70;41.30
66568;DHT22;53422;49.296;6.900;2023-06-14T07:02:02;21.70;41.20
66568;DHT22;53422;49.296;6.900;2023-06-14T07:04:28;21.90;41.70
66568;DHT22;53422;49.296;6.900;2023-06-14T07:06:54;21.90;41.20
66568;DHT22;53422;49.296;6.900;2023-06-14T07:09:19;21.90;41.20
66568;DHT22;53422;49.296;6.900;2023-06-14T07:11:47;22.00;41.40
66568;DHT22;53422;49.296;6.900;2023-06-14T07:14:13;22.00;40.70
66568;DHT22;53422;49.296;6.900;2023-06-14T07:16:39;22.10;41.10
66568;DHT22;53422;49.296;6.900;2023-06-14T07:19:06;22.20;41.30
66568;DHT22;53422;49.296;6.900;2023-06-14T07:21:32;22.30;40.50
66568;DHT22;53422;49.296;6.900;2023-06-14T07:23:57;22.20;40.60
66568;DHT22;53422;49.296;6.900;2023-06-14T07:26:23;22.20;40.40
66568;DHT22;53422;49.296;6.900;2023-06-14T07:28:49;22.20;40.60
66568;DHT22;53422;49.296;6.900;2023-06-14T07:31:15;22.30;40.70
66568;DHT22;53422;49.296;6.900;2023-06-14T07:33:42;22.40;40.50
66568;DHT22;53422;49.296;6.900;2023-06-14T07:36:08;22.60;40.30
66568;DHT22;53422;49.296;6.900;2023-06-14T07:38:33;22.70;39.40
66568;DHT22;53422;49.296;6.900;2023-06-14T07:41:00;22.60;40.10
66568;DHT22;53422;49.296;6.900;2023-06-14T07:43:25;22.70;39.40
66568;DHT22;53422;49.296;6.900;2023-06-14T07:45:51;22.70;39.10
66568;DHT22;53422;49.296;6.900;2023-06-14T07:48:16;22.90;39.00
66568;DHT22;53422;49.296;6.900;2023-06-14T07:50:42;22.90;39.10
66568;DHT22;53422;49.296;6.900;2023-06-14T07:53:08;23.00;39.00
66568;DHT22;53422;49.296;6.900;2023-06-14T07:55:33;23.20;39.20
66568;DHT22;53422;49.296;6.900;2023-06-14T07:58:08;23.30;38.60
66568;DHT22;53422;49.296;6.900;2023-06-14T08:00:37;23.30;39.00
66568;DHT22;53422;49.296;6.900;2023-06-14T08:03:03;23.40;38.80
66568;DHT22;53422;49.296;6.900;2023-06-14T08:05:29;23.30;38.10
66568;DHT22;53422;49.296;6.900;2023-06-14T08:07:55;23.30;37.90
66568;DHT22;53422;49.296;6.900;2023-06-14T08:10:21;23.50;37.70
66568;DHT22;53422;49.296;6.900;2023-06-14T08:12:47;23.50;38.00
66568;DHT22;53422;49.296;6.900;2023-06-14T08:15:15;23.70;38.20
66568;DHT22;53422;49.296;6.900;2023-06-14T08:17:42;23.90;37.40
66568;DHT22;53422;49.296;6.900;2023-06-14T08:20:09;24.00;38.40
66568;DHT22;53422;49.296;6.900;2023-06-14T08:22:36;24.10;37.30
66568;DHT22;53422;49.296;6.900;2023-06-14T08:25:02;23.90;37.00
66568;DHT22;53422;49.296;6.900;2023-06-14T08:27:29;24.00;37.20
66568;DHT22;53422;49.296;6.900;2023-06-14T08:29:54;24.10;36.60
66568;DHT22;53422;49.296;6.900;2023-06-14T08:32:20;24.10;36.60
66568;DHT22;53422;49.296;6.900;2023-06-14T08:34:46;24.10;36.80
66568;DHT22;53422;49.296;6.900;2023-06-14T08:37:11;24.30;36.50
66568;DHT22;53422;49.296;6.900;2023-06-14T08:39:37;24.50;36.60
66568;DHT22;53422;49.296;6.900;2023-06-14T08:42:04;24.50;36.40
66568;DHT22;53422;49.296;6.900;2023-06-14T08:44:32;24.50;36.00
66568;DHT22;53422;49.296;6.900;2023-06-14T08:46:59;24.30;35.70
66568;DHT22;53422;49.296;6.900;2023-06-14T08:49:25;24.20;36.50
66568;DHT22;53422;49.296;6.900;2023-06-14T08:51:58;24.30;36.10
66568;DHT22;53422;49.296;6.900;2023-06-14T08:54:28;24.50;36.60
66568;DHT22;53422;49.296;6.900;2023-06-14T08:56:56;24.70;36.10
66568;DHT22;53422;49.296;6.900;2023-06-14T08:59:29;24.90;36.10
66568;DHT22;53422;49.296;6.900;2023-06-14T09:01:56;24.90;35.80
66568;DHT22;53422;49.296;6.900;2023-06-14T09:04:25;25.00;35.80
66568;DHT22;53422;49.296;6.900;2023-06-14T09:06:55;25.10;35.80
66568;DHT22;53422;49.296;6.900;2023-06-14T09:09:21;24.80;35.30
66568;DHT22;53422;49.296;6.900;2023-06-14T09:11:49;24.90;35.50
66568;DHT22;53422;49.296;6.900;2023-06-14T09:14:15;24.90;34.50
66568;DHT22;53422;49.296;6.900;2023-06-14T09:16:41;25.00;35.10
66568;DHT22;53422;49.296;6.900;2023-06-14T09:19:06;25.10;35.00
66568;DHT22;53422;49.296;6.900;2023-06-14T09:21:34;25.00;34.80
66568;DHT22;53422;49.296;6.900;2023-06-14T09:24:00;25.10;34.80
66568;DHT22;53422;49.296;6.900;2023-06-14T09:26:25;25.20;35.20
66568;DHT22;53422;49.296;6.900;2023-06-14T09:28:53;25.20;34.80
66568;DHT22;53422;49.296;6.900;2023-06-14T09:31:19;25.20;35.30
66568;DHT22;53422;49.296;6.900;2023-06-14T09:33:49;25.20;35.30
66568;DHT22;53422;49.296;6.900;2023-06-14T09:38:55;25.50;35.50
66568;DHT22;53422;49.296;6.900;2023-06-14T09:41:30;25.50;34.60
66568;DHT22;53422;49.296;6.900;2023-06-14T09:43:58;25.60;35.10
66568;DHT22;53422;49.296;6.900;2023-06-14T09:46:27;25.60;34.60
66568;DHT22;53422;49.296;6.900;2023-06-14T09:48:53;25.70;35.10
66568;DHT22;53422;49.296;6.900;2023-06-14T09:51:19;25.80;34.50
66568;DHT22;53422;49.296;6.900;2023-06-14T09:53:49;25.90;34.50
66568;DHT22;53422;49.296;6.900;2023-06-14T09:56:50;25.90;34.40
66568;DHT22;53422;49.296;6.900;2023-06-14T09:59:09;25.90;34.70
66568;DHT22;53422;49.296;6.900;2023-06-14T10:01:37;26.00;34.90
66568;DHT22;53422;49.296;6.900;2023-06-14T10:04:06;26.10;33.90
66568;DHT22;53422;49.296;6.900;2023-06-14T10:06:37;26.10;33.50
66568;DHT22;53422;49.296;6.900;2023-06-14T10:09:07;26.30;34.20
66568;DHT22;53422;49.296;6.900;2023-06-14T10:11:35;26.20;33.40
66568;DHT22;53422;49.296;6.900;2023-06-14T10:14:02;26.20;33.60
66568;DHT22;53422;49.296;6.900;2023-06-14T10:19:24;26.30;33.00
66568;DHT22;53422;49.296;6.900;2023-06-14T10:22:08;26.40;32.80
66568;DHT22;53422;49.296;6.900;2023-06-14T10:24:42;26.40;32.30
66568;DHT22;53422;49.296;6.900;2023-06-14T10:27:09;26.40;32.00
66568;DHT22;53422;49.296;6.900;2023-06-14T10:32:27;26.60;32.60
66568;DHT22;53422;49.296;6.900;2023-06-14T10:34:59;26.60;31.20
66568;DHT22;53422;49.296;6.900;2023-06-14T10:37:25;26.70;31.00
66568;DHT22;53422;49.296;6.900;2023-06-14T10:39:51;26.60;31.40
66568;DHT22;53422;49.296;6.900;2023-06-14T10:42:17;26.80;31.70
66568;DHT22;53422;49.296;6.900;2023-06-14T10:44:50;26.90;31.40
66568;DHT22;53422;49.296;6.900;2023-06-14T10:47:20;26.90;31.60
66568;DHT22;53422;49.296;6.900;2023-06-14T10:49:53;26.90;31.60
66568;DHT22;53422;49.296;6.900;2023-06-14T10:52:24;26.90;30.30
66568;DHT22;53422;49.296;6.900;2023-06-14T10:57:30;26.90;29.70
66568;DHT22;53422;49.296;6.900;2023-06-14T10:59:58;27.00;29.80
66568;DHT22;53422;49.296;6.900;2023-06-14T11:02:49;27.20;30.00
66568;DHT22;53422;49.296;6.900;2023-06-14T11:05:25;27.20;29.80
66568;DHT22;53422;49.296;6.900;2023-06-14T11:10:41;27.20;29.80
66568;DHT22;53422;49.296;6.900;2023-06-14T11:13:07;27.10;30.20
66568;DHT22;53422;49.296;6.900;2023-06-14T11:15:34;27.10;31.60
66568;DHT22;53422;49.296;6.900;2023-06-14T11:18:01;27.30;30.30
66568;DHT22;53422;49.296;6.900;2023-06-14T11:20:30;27.30;29.50
66568;DHT22;53422;49.296;6.900;2023-06-14T11:22:59;27.30;29.60
66568;DHT22;53422;49.296;6.900;2023-06-14T11:25:26;27.40;29.90
66568;DHT22;53422;49.296;6.900;2023-06-14T11:27:54;27.50;29.60
66568;DHT22;53422;49.296;6.900;2023-06-14T11:30:21;27.60;30.30
66568;DHT22;53422;49.296;6.900;2023-06-14T11:32:51;27.50;29.70
66568;DHT22;53422;49.296;6.900;2023-06-14T11:35:17;27.50;29.20
66568;DHT22;53422;49.296;6.900;2023-06-14T11:37:43;27.50;29.60
66568;DHT22;53422;49.296;6.900;2023-06-14T11:40:13;27.60;29.40
66568;DHT22;53422;49.296;6.900;2023-06-14T11:42:40;27.70;30.00
66568;DHT22;53422;49.296;6.900;2023-06-14T11:45:11;27.80;30.00
66568;DHT22;53422;49.296;6.900;2023-06-14T11:47:38;27.90;29.40
66568;DHT22;53422;49.296;6.900;2023-06-14T11:50:06;27.80;29.40
66568;DHT22;53422;49.296;6.900;2023-06-14T11:52:32;27.70;29.80
66568;DHT22;53422;49.296;6.900;2023-06-14T11:54:58;27.80;29.40
66568;DHT22;53422;49.296;6.900;2023-06-14T11:57:26;27.70;29.30
66568;DHT22;53422;49.296;6.900;2023-06-14T11:59:52;27.70;29.30
66568;DHT22;53422;49.296;6.900;2023-06-14T12:02:21;27.70;29.40
66568;DHT22;53422;49.296;6.900;2023-06-14T12:04:48;28.00;29.50
66568;DHT22;53422;49.296;6.900;2023-06-14T12:07:16;28.10;29.10
66568;DHT22;53422;49.296;6.900;2023-06-14T12:12:25;28.00;29.20
66568;DHT22;53422;49.296;6.900;2023-06-14T12:14:51;28.00;29.10
66568;DHT22;53422;49.296;6.900;2023-06-14T12:17:19;28.00;29.50
66568;DHT22;53422;49.296;6.900;2023-06-14T12:19:48;28.00;29.30
66568;DHT22;53422;49.296;6.900;2023-06-14T12:22:14;27.70;29.40
66568;DHT22;53422;49.296;6.900;2023-06-14T12:24:43;27.70;29.30
66568;DHT22;53422;49.296;6.900;2023-06-14T12:27:12;27.80;29.40
66568;DHT22;53422;49.296;6.900;2023-06-14T12:29:41;27.70;28.80
66568;DHT22;53422;49.296;6.900;2023-06-14T12:32:09;27.60;28.80
66568;DHT22;53422;49.296;6.900;2023-06-14T12:34:35;27.50;28.80
66568;DHT22;53422;49.296;6.900;2023-06-14T12:37:01;27.70;28.90
66568;DHT22;53422;49.296;6.900;2023-06-14T12:39:28;27.70;29.00
66568;DHT22;53422;49.296;6.900;2023-06-14T12:41:55;27.70;29.10
66568;DHT22;53422;49.296;6.900;2023-06-14T12:44:21;27.50;29.20
66568;DHT22;53422;49.296;6.900;2023-06-14T12:46:46;27.80;29.50
66568;DHT22;53422;49.296;6.900;2023-06-14T12:49:12;28.00;29.50
66568;DHT22;53422;49.296;6.900;2023-06-14T12:51:38;28.10;29.50
66568;DHT22;53422;49.296;6.900;2023-06-14T12:54:05;28.10;29.50
66568;DHT22;53422;49.296;6.900;2023-06-14T12:56:31;28.10;29.50
66568;DHT22;53422;49.296;6.900;2023-06-14T12:58:56;28.20;29.40
66568;DHT22;53422;49.296;6.900;2023-06-14T13:01:22;28.40;29.20
66568;DHT22;53422;49.296;6.900;2023-06-14T13:03:47;28.10;29.20
66568;DHT22;53422;49.296;6.900;2023-06-14T13:06:13;28.00;28.80
66568;DHT22;53422;49.296;6.900;2023-06-14T13:08:39;28.10;29.20
66568;DHT22;53422;49.296;6.900;2023-06-14T13:11:05;28.30;28.80
66568;DHT22;53422;49.296;6.900;2023-06-14T13:13:30;28.50;29.10
66568;DHT22;53422;49.296;6.900;2023-06-14T13:15:56;28.20;28.70
66568;DHT22;53422;49.296;6.900;2023-06-14T13:18:21;28.20;28.80
66568;DHT22;53422;49.296;6.900;2023-06-14T13:20:47;28.30;28.60
66568;DHT22;53422;49.296;6.900;2023-06-14T13:23:13;28.20;28.80
66568;DHT22;53422;49.296;6.900;2023-06-14T13:25:40;28.30;28.90
66568;DHT22;53422;49.296;6.900;2023-06-14T13:28:05;28.20;28.50
66568;DHT22;53422;49.296;6.900;2023-06-14T13:30:32;28.10;28.50
66568;DHT22;53422;49.296;6.900;2023-06-14T13:32:57;28.20;28.70
66568;DHT22;53422;49.296;6.900;2023-06-14T13:35:24;28.00;28.80
66568;DHT22;53422;49.296;6.900;2023-06-14T13:37:50;27.90;29.00
66568;DHT22;53422;49.296;6.900;2023-06-14T13:40:16;27.90;28.50
66568;DHT22;53422;49.296;6.900;2023-06-14T13:42:42;27.90;28.50
66568;DHT22;53422;49.296;6.900;2023-06-14T13:45:11;28.00;28.60
66568;DHT22;53422;49.296;6.900;2023-06-14T13:47:37;28.20;28.70
66568;DHT22;53422;49.296;6.900;2023-06-14T13:50:03;28.10;28.70
66568;DHT22;53422;49.296;6.900;2023-06-14T13:52:29;28.10;28.90
66568;DHT22;53422;49.296;6.900;2023-06-14T13:54:54;28.20;28.50
66568;DHT22;53422;49.296;6.900;2023-06-14T13:57:20;27.90;28.60
66568;DHT22;53422;49.296;6.900;2023-06-14T13:59:46;27.60;28.60
66568;DHT22;53422;49.296;6.900;2023-06-14T14:02:12;27.90;28.50
66568;DHT22;53422;49.296;6.900;2023-06-14T14:04:39;27.80;28.50
66568;DHT22;53422;49.296;6.900;2023-06-14T14:07:05;27.90;28.80
66568;DHT22;53422;49.296;6.900;2023-06-14T14:09:35;28.10;28.40
66568;DHT22;53422;49.296;6.900;2023-06-14T14:12:01;28.20;28.40
66568;DHT22;53422;49.296;6.900;2023-06-14T14:14:28;28.20;28.80
66568;DHT22;53422;49.296;6.900;2023-06-14T14:16:53;28.00;28.70
66568;DHT22;53422;49.296;6.900;2023-06-14T14:19:23;28.20;28.80
66568;DHT22;53422;49.296;6.900;2023-06-14T14:21:49;28.30;28.60
66568;DHT22;53422;49.296;6.900;2023-06-14T14:24:14;28.20;28.40
66568;DHT22;53422;49.296;6.900;2023-06-14T14:26:42;28.10;28.60
66568;DHT22;53422;49.296;6.900;2023-06-14T14:29:08;28.20;28.80
66568;DHT22;53422;49.296;6.900;2023-06-14T14:31:36;27.90;28.70
66568;DHT22;53422;49.296;6.900;2023-06-14T14:34:02;27.90;28.50
66568;DHT22;53422;49.296;6.900;2023-06-14T14:36:28;27.90;28.80
66568;DHT22;53422;49.296;6.900;2023-06-14T14:38:53;28.20;28.90
66568;DHT22;53422;49.296;6.900;2023-06-14T14:41:19;28.10;28.90
66568;DHT22;53422;49.296;6.900;2023-06-14T14:43:45;28.10;28.80
66568;DHT22;53422;49.296;6.900;2023-06-14T14:46:10;27.90;28.80
66568;DHT22;53422;49.296;6.900;2023-06-14T14:48:36;27.90;29.00
66568;DHT22;53422;49.296;6.900;2023-06-14T14:51:02;27.90;29.40
66568;DHT22;53422;49.296;6.900;2023-06-14T14:53:28;27.60;29.30
66568;DHT22;53422;49.296;6.900;2023-06-14T14:55:54;27.80;29.50
66568;DHT22;53422;49.296;6.900;2023-06-14T14:58:20;27.80;29.30
66568;DHT22;53422;49.296;6.900;2023-06-14T15:00:47;27.80;30.10
66568;DHT22;53422;49.296;6.900;2023-06-14T15:03:13;27.60;29.30
66568;DHT22;53422;49.296;6.900;2023-06-14T15:05:39;27.80;29.40
66568;DHT22;53422;49.296;6.900;2023-06-14T15:08:05;27.70;29.10
66568;DHT22;53422;49.296;6.900;2023-06-14T15:10:40;27.70;29.50
66568;DHT22;53422;49.296;6.900;2023-06-14T15:13:07;27.70;29.40
66568;DHT22;53422;49.296;6.900;2023-06-14T15:15:33;27.60;29.50
66568;DHT22;53422;49.296;6.900;2023-06-14T15:17:59;27.30;29.70
66568;DHT22;53422;49.296;6.900;2023-06-14T15:20:25;27.30;29.80
66568;DHT22;53422;49.296;6.900;2023-06-14T15:22:51;27.30;29.80
66568;DHT22;53422;49.296;6.900;2023-06-14T15:25:20;27.30;29.70
66568;DHT22;53422;49.296;6.900;2023-06-14T15:27:46;27.30;29.80
66568;DHT22;53422;49.296;6.900;2023-06-14T15:30:12;27.30;29.80
66568;DHT22;53422;49.296;6.900;2023-06-14T15:32:38;27.40;29.70
66568;DHT22;53422;49.296;6.900;2023-06-14T15:35:04;27.10;29.70
66568;DHT22;53422;49.296;6.900;2023-06-14T15:37:30;26.90;30.10
66568;DHT22;53422;49.296;6.900;2023-06-14T15:39:55;27.00;30.30
66568;DHT22;53422;49.296;6.900;2023-06-14T15:42:21;26.70;30.40
66568;DHT22;53422;49.296;6.900;2023-06-14T15:44:47;26.60;30.60
66568;DHT22;53422;49.296;6.900;2023-06-14T15:47:13;26.70;30.50